Terminal Aerodrome Forecast
Issued by NWS

Home | Current Version | Previous Version | Text Only | Print | Product List | Glossary On
Versions: 1 2 3 4 5 6 7 8 9 10 11 12 13 14 15 16 17 18 19 20 21 22 23 24 25
108
FTUS41 KGYX 262117 AAA
TAFPSM
TAF AMD
KPSM 262117Z 2621/2718 14008KT P6SM BKN070 OVC200
     FM270500 05005KT 5SM -RADZSN BKN015 OVC025
     FM270800 06004KT 2SM -RA BR BKN007 OVC015
     FM271200 08006KT 1 1/2SM -RA BR OVC007=

USA.gov is the U.S. government's official web portal to all federal, state and local government web resources and services.